createdAt,value
2018-06-20T00:02:45.570Z,64.71
2018-06-20T00:07:47.699Z,65.79
2018-06-20T00:12:49.834Z,64.82
2018-06-20T00:17:51.981Z,65.17
2018-06-20T00:22:54.207Z,65.74
2018-06-20T00:27:56.343Z,66.00
2018-06-20T00:32:58.444Z,65.81
2018-06-20T00:38:00.570Z,66.41
2018-06-20T00:43:02.730Z,66.54
2018-06-20T00:48:04.906Z,66.72
2018-06-20T00:53:07.034Z,66.26
2018-06-20T00:58:09.164Z,66.99
2018-06-20T01:03:11.307Z,67.31
2018-06-20T01:08:13.433Z,66.93
2018-06-20T01:13:15.564Z,67.05
2018-06-20T01:18:17.685Z,67.68
2018-06-20T01:23:19.845Z,67.39
2018-06-20T01:28:22.135Z,68.29
2018-06-20T01:33:24.274Z,68.97
2018-06-20T01:38:26.396Z,70.58
2018-06-20T01:43:28.541Z,69.65
2018-06-20T01:48:30.725Z,69.17
2018-06-20T01:53:32.818Z,69.59
2018-06-20T01:58:34.930Z,68.90
2018-06-20T02:03:37.073Z,70.33
2018-06-20T02:08:39.227Z,70.56
2018-06-20T02:13:41.365Z,70.88
2018-06-20T02:18:43.499Z,71.34
2018-06-20T02:23:45.854Z,70.50
2018-06-20T02:28:47.960Z,70.54
2018-06-20T02:33:50.094Z,70.56
2018-06-20T02:38:52.228Z,70.08
2018-06-20T02:43:54.368Z,70.55
2018-06-20T02:48:56.552Z,70.89
2018-06-20T02:53:58.682Z,70.64
2018-06-20T02:59:00.844Z,70.71
2018-06-20T03:04:04.354Z,70.96
2018-06-20T03:09:13.332Z,70.56
2018-06-20T03:14:15.582Z,70.72
2018-06-20T03:19:17.719Z,70.96
2018-06-20T03:24:19.832Z,71.23
2018-06-20T03:29:21.930Z,70.30
2018-06-20T03:34:24.081Z,70.12
2018-06-20T03:39:26.219Z,70.50
2018-06-20T03:44:28.331Z,69.97
2018-06-20T03:49:30.452Z,70.62
2018-06-20T03:54:32.594Z,70.48
2018-06-20T03:59:34.722Z,69.80
2018-06-20T04:04:36.834Z,69.94
2018-06-20T04:09:38.938Z,70.27
2018-06-20T04:14:41.080Z,69.73
2018-06-20T04:19:43.199Z,69.63
2018-06-20T04:24:45.314Z,69.98
2018-06-20T04:29:47.428Z,69.36
2018-06-20T04:34:49.563Z,69.53
2018-06-20T04:39:51.679Z,68.58
2018-06-20T04:44:53.806Z,68.77
2018-06-20T04:49:55.950Z,68.06
2018-06-20T04:54:58.098Z,68.70
2018-06-20T05:00:00.223Z,67.64
2018-06-20T05:05:02.382Z,68.32
2018-06-20T05:10:04.538Z,67.51
2018-06-20T05:15:06.716Z,68.07
2018-06-20T05:20:08.849Z,68.30
2018-06-20T05:25:11.004Z,67.74
2018-06-20T05:30:13.202Z,67.44
2018-06-20T05:35:15.368Z,67.94
2018-06-20T05:40:17.802Z,67.78
2018-06-20T05:45:19.960Z,68.58
2018-06-20T05:50:22.128Z,68.06
2018-06-20T05:55:24.255Z,68.60
2018-06-20T06:00:26.405Z,69.78
2018-06-20T06:05:28.560Z,68.81
2018-06-20T06:10:30.690Z,69.23
2018-06-20T06:15:32.858Z,70.30
2018-06-20T06:20:34.970Z,70.20
2018-06-20T06:25:37.089Z,70.87
2018-06-20T06:30:39.324Z,70.80
2018-06-20T06:35:41.415Z,71.64
2018-06-20T06:40:43.580Z,71.91
2018-06-20T06:45:45.692Z,70.54
2018-06-20T06:50:47.869Z,71.86
2018-06-20T06:55:50.034Z,71.33
2018-06-20T07:00:52.184Z,71.76
2018-06-20T07:05:54.360Z,71.42
2018-06-20T07:10:56.791Z,71.64
2018-06-20T07:15:58.955Z,72.24
2018-06-20T07:21:01.130Z,72.44
2018-06-20T07:26:03.271Z,72.08
2018-06-20T07:31:05.414Z,72.32
2018-06-20T07:36:08.435Z,72.28
2018-06-20T07:41:10.546Z,70.72
2018-06-20T07:46:12.722Z,70.67
2018-06-20T07:51:14.948Z,70.03
2018-06-20T07:56:17.128Z,67.92
2018-06-20T08:01:36.535Z,67.50
2018-06-20T08:06:44.377Z,67.29
2018-06-20T08:11:52.375Z,67.10
2018-06-20T08:17:00.484Z,66.80
2018-06-20T08:22:02.652Z,66.97
2018-06-20T08:27:04.856Z,65.87
2018-06-20T08:32:06.987Z,66.74
2018-06-20T08:37:09.124Z,64.71
2018-06-20T08:42:11.297Z,63.97
2018-06-20T08:47:13.444Z,63.42
2018-06-20T08:52:15.624Z,64.34
2018-06-20T08:57:17.808Z,63.78
2018-06-20T09:02:20.270Z,63.17
2018-06-20T09:07:28.008Z,64.19
2018-06-20T09:12:35.924Z,61.68
2018-06-20T09:17:43.907Z,61.65
2018-06-20T09:22:46.053Z,62.33
2018-06-20T09:27:48.209Z,60.47
2018-06-20T09:32:50.345Z,61.21
2018-06-20T09:37:52.474Z,60.25
2018-06-20T09:42:54.740Z,57.59
2018-06-20T09:47:56.899Z,57.47
2018-06-20T09:52:59.126Z,58.46
2018-06-20T09:58:02.198Z,59.98
2018-06-20T10:03:09.843Z,59.04
2018-06-20T10:08:17.823Z,61.01
2018-06-20T10:13:23.636Z,57.73
2018-06-20T10:18:25.799Z,56.63
2018-06-20T10:23:27.971Z,57.46
2018-06-20T10:28:30.202Z,54.81
2018-06-20T10:33:32.295Z,56.86
2018-06-20T10:38:34.467Z,54.63
2018-06-20T10:43:36.656Z,58.67
2018-06-20T10:48:38.792Z,54.48
2018-06-20T10:53:40.979Z,54.46
2018-06-20T10:58:48.929Z,54.90
2018-06-20T11:03:56.831Z,55.04
2018-06-20T11:09:04.705Z,56.28
2018-06-20T11:14:07.450Z,55.47
2018-06-20T11:19:09.654Z,55.68
2018-06-20T11:24:11.832Z,56.09
2018-06-20T11:29:14.082Z,54.16
2018-06-20T11:34:16.226Z,54.63
2018-06-20T11:39:18.389Z,54.68
2018-06-20T11:44:20.563Z,52.56
2018-06-20T11:49:22.821Z,55.27
2018-06-20T11:54:24.987Z,55.80
2018-06-20T11:59:34.632Z,55.17
2018-06-20T12:04:42.582Z,56.76
2018-06-20T12:09:50.475Z,53.73
2018-06-20T12:14:58.432Z,51.16
2018-06-20T12:20:06.465Z,51.59
2018-06-20T12:25:14.456Z,51.69
2018-06-20T12:30:22.421Z,51.54
2018-06-20T12:35:30.407Z,51.16
2018-06-20T12:40:38.443Z,52.94
2018-06-20T12:45:40.895Z,50.35
2018-06-20T12:50:43.045Z,49.56
2018-06-20T12:55:45.291Z,50.84
2018-06-20T13:00:47.436Z,51.52
2018-06-20T13:05:49.619Z,47.38
2018-06-20T13:10:51.831Z,47.64
2018-06-20T13:15:53.971Z,47.58
2018-06-20T13:20:56.145Z,46.56
2018-06-20T13:25:58.330Z,44.81
2018-06-20T13:31:06.131Z,42.98
2018-06-20T13:36:14.064Z,41.43
2018-06-20T13:41:22.090Z,41.72
2018-06-20T13:46:30.010Z,43.40
2018-06-20T13:51:32.156Z,42.15
2018-06-20T13:56:34.376Z,42.86
2018-06-20T14:01:36.517Z,42.71
2018-06-20T14:06:38.670Z,42.12
2018-06-20T14:11:41.384Z,43.67
2018-06-20T14:16:43.623Z,43.57
2018-06-20T14:21:48.703Z,45.04
2018-06-20T14:26:53.561Z,46.15
2018-06-20T14:32:06.368Z,44.11
2018-06-20T14:37:26.026Z,42.07
2018-06-20T14:42:38.968Z,44.63
2018-06-20T14:47:41.151Z,45.09
2018-06-20T14:52:43.320Z,44.90
2018-06-20T14:57:45.479Z,47.10
2018-06-20T15:02:47.648Z,44.68
2018-06-20T15:07:50.665Z,41.84
2018-06-20T15:12:53.348Z,42.76
2018-06-20T15:17:55.513Z,45.59
2018-06-20T15:22:57.689Z,45.91
2018-06-20T15:28:05.603Z,44.58
2018-06-20T15:33:13.556Z,46.36
2018-06-20T15:38:17.521Z,45.46
2018-06-20T15:43:19.691Z,45.86
2018-06-20T15:48:21.881Z,46.67
2018-06-20T15:53:24.049Z,46.85
2018-06-20T15:58:26.257Z,45.68
2018-06-20T16:03:28.471Z,46.00
2018-06-20T16:08:30.636Z,46.31
2018-06-20T16:13:32.796Z,47.12
2018-06-20T16:18:34.986Z,46.70
2018-06-20T16:23:42.981Z,47.24
2018-06-20T16:28:50.917Z,48.32
2018-06-20T16:33:53.226Z,48.43
2018-06-20T16:38:55.384Z,48.81
2018-06-20T16:43:57.559Z,48.91
2018-06-20T16:48:59.906Z,51.21
2018-06-20T16:54:02.982Z,52.62
2018-06-20T16:59:05.225Z,53.03
2018-06-20T17:04:07.456Z,53.17
2018-06-20T17:09:10.235Z,55.24
2018-06-20T17:14:18.107Z,55.88
2018-06-20T17:19:26.088Z,55.66
2018-06-20T17:24:33.892Z,56.38
2018-06-20T17:29:36.108Z,56.89
2018-06-20T17:34:39.052Z,57.53
2018-06-20T17:39:41.228Z,58.56
2018-06-20T17:44:43.760Z,58.58
2018-06-20T17:49:46.570Z,59.88
2018-06-20T17:54:48.957Z,59.86
2018-06-20T17:59:51.182Z,59.01
2018-06-20T18:04:59.216Z,59.91
2018-06-20T18:10:07.141Z,59.81
2018-06-20T18:15:15.084Z,59.82
2018-06-20T18:20:17.268Z,59.73
2018-06-20T18:25:19.552Z,60.22
2018-06-20T18:30:21.842Z,61.48
2018-06-20T18:35:24.064Z,61.13
2018-06-20T18:40:26.332Z,62.09
2018-06-20T18:45:28.515Z,61.88
2018-06-20T18:50:30.735Z,62.10
2018-06-20T18:55:32.950Z,62.65
2018-06-20T19:00:40.938Z,62.71
2018-06-20T19:05:48.906Z,63.68
2018-06-20T19:10:51.167Z,64.24
2018-06-20T19:15:53.375Z,64.10
2018-06-20T19:20:55.652Z,64.49
2018-06-20T19:25:57.957Z,65.29
2018-06-20T19:31:00.131Z,65.14
2018-06-20T19:36:02.574Z,65.72
2018-06-20T19:41:04.789Z,65.47
2018-06-20T19:46:07.275Z,65.34
2018-06-20T19:51:09.462Z,65.65
2018-06-20T19:56:11.661Z,65.98
2018-06-20T20:01:13.904Z,66.49
2018-06-20T20:06:16.120Z,66.85
2018-06-20T20:11:18.301Z,67.02
2018-06-20T20:16:20.492Z,66.63
2018-06-20T20:21:22.677Z,66.40
2018-06-20T20:26:24.900Z,67.12
2018-06-20T20:31:27.098Z,66.09
2018-06-20T20:36:29.283Z,65.97
2018-06-20T20:41:31.504Z,65.13
2018-06-20T20:46:33.705Z,66.18
2018-06-20T20:51:35.893Z,65.75
2018-06-20T20:56:38.056Z,66.35
2018-06-20T21:01:40.271Z,66.31
2018-06-20T21:06:42.466Z,67.10
2018-06-20T21:11:45.299Z,67.26
2018-06-20T21:16:47.491Z,67.42
2018-06-20T21:21:49.695Z,67.21
2018-06-20T21:26:51.993Z,66.96
2018-06-20T21:31:54.145Z,66.87
2018-06-20T21:36:56.343Z,66.76
2018-06-20T21:41:58.483Z,66.62
2018-06-20T21:47:00.647Z,66.82
2018-06-20T21:52:02.852Z,66.48
2018-06-20T21:57:05.071Z,67.01
2018-06-20T22:02:07.310Z,66.52
2018-06-20T22:07:09.488Z,66.59
2018-06-20T22:12:11.657Z,67.63
2018-06-20T22:17:13.803Z,69.01
2018-06-20T22:22:15.947Z,69.14
2018-06-20T22:27:18.096Z,69.78
2018-06-20T22:32:20.229Z,70.43
2018-06-20T22:37:22.630Z,70.30
2018-06-20T22:42:24.803Z,70.90
2018-06-20T22:47:27.310Z,70.25
2018-06-20T22:52:29.439Z,71.08
2018-06-20T22:57:31.882Z,71.26
2018-06-20T23:02:34.360Z,71.00
2018-06-20T23:07:36.560Z,72.74
2018-06-20T23:12:38.728Z,73.72
2018-06-20T23:17:40.861Z,73.69
2018-06-20T23:22:42.973Z,73.88
2018-06-20T23:27:45.095Z,73.74
2018-06-20T23:32:47.240Z,74.76
2018-06-20T23:37:49.393Z,74.15
2018-06-20T23:42:51.538Z,75.25
2018-06-20T23:47:53.690Z,75.62
2018-06-20T23:52:55.824Z,77.06
2018-06-20T23:57:57.987Z,76.51
